Ergebnisliste vom: 09.05.2015 - Cross-Duathlon-Limbach2015 - 6km-20km-3km (HWK)

weitere Ergebnisse >>

Platz Plm Plw StNr. Name,Vorname Verein AK AKm AKw Endzeit 1.Laufzeit Radzeit 1.Lauf+Rad 2.Laufzeit RŘckst. WB
1 1   263 Stein, Marcel SG Adelsberg/Team STEIN-BIKES M20 1   1:11:21 0:22:32( 4 ) 0:36:34( 1 ) 0:59:06( 1 ) 0:12:15( 1 ) 0:00:00 2
2 2   239 Mittelst├Ądt, Martin SV Neptun 08 M20 2   1:12:39 0:21:19( 1 ) 0:38:50( 3 ) 1:00:09( 2 ) 0:12:30( 5 ) 0:01:18 2
3 3   215 Helbig, Christian SV Remse M20 3   1:14:06 0:22:13( 2 ) 0:39:30( 5 ) 1:01:43( 3 ) 0:12:23( 3 ) 0:02:45 2
4 4   220 ├ľhmichen, Steffen Trittfrequenz / Lauf-Kultour e.V. M30 1   1:15:08 0:23:31( 7 ) 0:38:43( 2 ) 1:02:14( 4 ) 0:12:54( 6 ) 0:03:47 2
5 5   212 Dani, J├Ârg BergPiratenTeam M45 1   1:15:25 0:22:14( 3 ) 0:40:55( 8 ) 1:03:09( 5 ) 0:12:16( 2 ) 0:04:04 2
6 6   228 Schicker, Tim SV Burkhardtsgr├╝n M20 4   1:16:14 0:22:50( 5 ) 0:40:26( 7 ) 1:03:16( 6 ) 0:12:58( 7 ) 0:04:53 2
7 7   264 Walther, Nico SG Adelsberg M20 5   1:16:32 0:23:03( 6 ) 0:41:00( 9 ) 1:04:03( 7 ) 0:12:29( 4 ) 0:05:11 2
8 8   222 Hoppe, Rene Hohenstein-Ernstthal M40 1   1:17:19 0:24:32( 11 ) 0:39:40( 6 ) 1:04:12( 9 ) 0:13:07( 8 ) 0:05:58 2
9 9   224 Metzler, Dirk LSV Langenberg M40 2   1:18:33 0:24:41( 12 ) 0:39:25( 4 ) 1:04:06( 8 ) 0:14:27( 17 ) 0:07:12 2
10 10   235 Maul, Andreas Team FangDasGnu e.V. M30 2   1:18:50 0:24:15( 9 ) 0:41:25( 11 ) 1:05:40( 10 ) 0:13:10( 9 ) 0:07:29 2
11 11   221 Hauffe, Marco LATV Plauen M40 3   1:19:47 0:24:19( 10 ) 0:41:49( 13 ) 1:06:08( 11 ) 0:13:39( 11 ) 0:08:26 2
12 12   245 Wetzel, Lars ISV Waldfrieden M40 4   1:19:55 0:24:04( 8 ) 0:42:19( 18 ) 1:06:23( 12 ) 0:13:32( 10 ) 0:08:34 2
13 13   249 Riedel, Marco Sport-Werk-Annaberg M30 3   1:20:45 0:24:50( 13 ) 0:42:16( 17 ) 1:07:06( 15 ) 0:13:39( 12 ) 0:09:24 2
14 14   238 Sonntag, Diddi BikePoint Dresden/DiBiSo-Team M55 1   1:21:28 0:25:11( 15 ) 0:41:54( 15 ) 1:07:05( 14 ) 0:14:23( 15 ) 0:10:07 2
14 14   265 Grimmer, S├Âren Team Stein Bikes M50 1   1:21:28 0:25:10( 14 ) 0:41:50( 14 ) 1:07:00( 13 ) 0:14:28( 18 ) 0:10:07 2
16 16   230 Dix, Martin SG Adelsberg M30 4   1:22:31 0:25:16( 17 ) 0:42:02( 16 ) 1:07:18( 16 ) 0:15:13( 21 ) 0:11:10 2
17 17   255 Fr├Âhner, Lukas SG Adelsberg M20 6   1:22:52 0:25:41( 18 ) 0:43:14( 20 ) 1:08:55( 19 ) 0:13:57( 13 ) 0:11:31 2
18 18   253 H├╝bner, Rene Team FangtDasGnu M40 5   1:23:05 0:26:18( 20 ) 0:41:23( 10 ) 1:07:41( 17 ) 0:15:24( 23 ) 0:11:44 2
19 19   244 Meiercord, Stefan RSG 52 Stollberg M40 6   1:24:02 0:27:01( 22 ) 0:41:45( 12 ) 1:08:46( 18 ) 0:15:16( 22 ) 0:12:41 2
20 20   243 Czayka, Thomas SC Riesa Triathlon M40 7   1:24:53 0:25:13( 16 ) 0:45:39( 27 ) 1:10:52( 23 ) 0:14:01( 14 ) 0:13:32 2
21 21   266 St├Âhr, Udo SC Riesa Triathlon M40 8   1:25:35 0:27:14( 25 ) 0:43:24( 21 ) 1:10:38( 21 ) 0:14:57( 19 ) 0:14:14 2
22 22   240 Matthes, Alexander enduro-lichtenberg.de M30 5   1:26:22 0:27:19( 26 ) 0:43:06( 19 ) 1:10:25( 20 ) 0:15:57( 27 ) 0:15:01 2
23 23   210 Wiese, Thomas RSV Frankenberg M20 7   1:26:46 1:10:53( 54 ) 0:00:00 0:00:00 0:00:00 0:15:25 2
24 24   203 Rathmann, Markus Waldbodentiefflieger M30 6   1:27:13 0:27:02( 23 ) 0:43:46( 23 ) 1:10:48( 22 ) 0:16:25( 30 ) 0:15:52 2
25 25   231 Bauer, Heiko SV Remse Abteilung Radsport M45 2   1:27:31 0:26:45( 21 ) 0:45:10( 25 ) 1:11:55( 24 ) 0:15:36( 24 ) 0:16:10 2
26 26   256 B├╝schel, Ulf Plauen M45 3   1:28:11 0:27:22( 27 ) 0:46:24( 31 ) 1:13:46( 28 ) 0:14:25( 16 ) 0:16:50 2
27 27   258 Rudolph, Patrick Erfurt M20 8   1:28:32 0:26:03( 19 ) 0:47:28( 34 ) 1:13:31( 26 ) 0:15:01( 20 ) 0:17:11 2
28 28   242 G├╝nsel, Felix Limbach-Oberfrohna M30 7   1:28:44 0:27:13( 24 ) 0:45:45( 28 ) 1:12:58( 25 ) 0:15:46( 25 ) 0:17:23 2
29 29   259 Hensel, Carsten SV Burkhardtsgr├╝n M50 2   1:30:08 0:29:11( 34 ) 0:44:29( 24 ) 1:13:40( 27 ) 0:16:28( 31 ) 0:18:47 2
30 30   207 Czyborra, Tim Dresden M30 8   1:31:13 0:28:35( 31 ) 0:45:59( 29 ) 1:14:34( 30 ) 0:16:39( 35 ) 0:19:52 2
31 31   225 Schneider, Christfried Paddelgruppe von Bredhult M35 1   1:32:11 0:29:09( 33 ) 0:46:45( 32 ) 1:15:54( 33 ) 0:16:17( 29 ) 0:20:50 2
32   1 236 Dani, Sophie BergPiratenTeam W20   1 1:33:21 0:30:13( 37 ) 0:46:52( 33 ) 1:17:05( 34 ) 0:16:16( 28 ) 0:22:00 2
33 32   252 Wei├čbach, Martin Saxcare Sports M20 9   1:33:53 0:28:57( 32 ) 0:49:02( 38 ) 1:17:59( 35 ) 0:15:54( 26 ) 0:22:32 2
34 33   233 Boier, Steven RSV Frankenberg M20 10   1:33:55 0:29:53( 36 ) 0:45:23( 26 ) 1:15:16( 31 ) 0:18:39( 42 ) 0:22:34 2
35   2 200 Kunz, Susan SG Adelsberg W20   2 1:34:41 0:29:40( 35 ) 0:48:23( 36 ) 1:18:03( 36 ) 0:16:38( 33 ) 0:23:20 2
36 34   241 Ketter, Falko Amc M├╝hlau M20 11   1:35:38 0:31:47( 43 ) 0:43:44( 22 ) 1:15:31( 32 ) 0:20:07( 45 ) 0:24:17 2
37 35   257 Baldauf, Matthias druckluft-technik Chemnitz M35 2   1:35:44 0:28:32( 30 ) 0:49:56( 40 ) 1:18:28( 37 ) 0:17:16( 36 ) 0:24:23 2
38   3 260 Neuber, Pauline SSV Blau-Weiss-Gersdorf Triathlon Gl├╝ck-Auf Team wU20   1 1:36:19 0:30:47( 42 ) 0:48:59( 37 ) 1:19:46( 38 ) 0:16:33( 32 ) 0:24:58 2
39 36   247 Ludewig, Alexander Shaking Lui M30 9   1:37:17 0:28:25( 29 ) 0:46:07( 30 ) 1:14:32( 29 ) 0:22:45( 50 ) 0:25:56 2
40 37   216 Nowak, Norbert Dresden M30 10   1:38:14 0:30:27( 39 ) 0:50:18( 41 ) 1:20:45( 40 ) 0:17:29( 37 ) 0:26:53 2
41   4 219 Lobedann, Doris EGZ-Triathlon G├Ârlitz W50   1 1:39:36 0:30:15( 38 ) 0:52:43( 42 ) 1:22:58( 42 ) 0:16:38( 33 ) 0:28:15 2
42 38   234 Wolff, Thomas Callenberg M55 2   1:40:02 0:32:56( 45 ) 0:49:02( 38 ) 1:21:58( 41 ) 0:18:04( 39 ) 0:28:41 2
43 39   262 Liedel, Oliver Bergpiraten Team M20 12   1:41:33 0:32:38( 44 ) 0:47:36( 35 ) 1:20:14( 39 ) 0:21:19( 48 ) 0:30:12 2
44 40   229 Krause, Gerald MSV Meusegast M55 3   1:45:36 0:33:16( 47 ) 0:53:59( 43 ) 1:27:15( 45 ) 0:18:21( 40 ) 0:34:15 2
45 41   208 Brechow, Andrej Bannewitz M35 3   1:46:23 0:30:46( 41 ) 0:54:32( 45 ) 1:25:18( 43 ) 0:21:05( 47 ) 0:35:02 2
46 42   248 Fiedler, Jens Paddelgruppe von Bredhult M35 4   1:46:30 0:33:03( 46 ) 0:55:04( 46 ) 1:28:07( 46 ) 0:18:23( 41 ) 0:35:09 2
47 43   204 Trautvetter, Kay TEAM STEMPELBREMSE M20 13   1:47:48 0:27:25( 28 ) 0:58:05( 47 ) 1:25:30( 44 ) 0:22:18( 49 ) 0:36:27 2
48   5 213 Dani, Ines BergPiratenTeam W45   1 1:48:16 0:34:14( 49 ) 0:54:15( 44 ) 1:28:29( 47 ) 0:19:47( 44 ) 0:36:55 2
49   6 206 Helke, Tina Team STEMPELBREMSE Girls W30   1 1:50:43 0:33:34( 48 ) 0:59:14( 50 ) 1:32:48( 48 ) 0:17:55( 38 ) 0:39:22 2
50 44   254 Wolf, Hans Laufgruppe Landeskrone G├Ârlitz e.V. M55 4   1:54:12 0:36:11( 50 ) 0:58:17( 48 ) 1:34:28( 49 ) 0:19:44( 43 ) 0:42:51 2
51 45   217 Ullmann, Frank Huckelradler Aue M50 3   1:55:55 0:36:34( 52 ) 0:58:17( 49 ) 1:34:51( 50 ) 0:21:04( 46 ) 0:44:34 2
52 46   261 Haubold, Marcel Chemnitz M20 14   1:58:37 0:30:31( 40 ) 1:04:56( 53 ) 1:35:27( 51 ) 0:23:10( 52 ) 0:47:16 2
53   7 205 Schellner, Anne TEAM STEMPELBREMSE W30   2 2:02:03 0:36:32( 51 ) 1:02:33( 52 ) 1:39:05( 52 ) 0:22:58( 51 ) 0:50:42 2
54 47   246 Schubert, Bernd Schwimm-Club Chemnitz 1892 M70 1   2:08:19 0:43:02( 53 ) 1:00:34( 51 ) 1:43:36( 53 ) 0:24:43( 53 ) 0:56:58 2
(c) 1990-2012 Blue Wonder Sport Promotion - Andreas Burow - Zeitnahme & Auswertung - www.Triathlon-Service.de